Terminal Aerodrome Forecast
Issued by NWS

Home | Current Version | Previous Version | Text Only | Print | Product List | Glossary On
Versions: 1 2 3 4 5 6 7 8 9 10 11 12 13 14 15 16 17 18 19 20 21 22 23 24 25 26 27 28 29 30 31 32 33 34 35 36 37 38 39 40 41 42 43 44 45
000
FTUS41 KBOX 291752 AAA
TAFHYA
TAF AMD
KHYA 291752Z 2918/3018 31010G18KT P6SM SCT009
      TEMPO 2918/2920 BKN008
     FM292000 12006KT P6SM FEW100
     FM292300 18006KT 5SM BR BKN030
     FM300200 19006KT 1SM BR BKN008
     FM300500 20007KT 1/2SM FG VCSH BKN003
     FM301000 21008KT 3/4SM -SHRA BR OVC003
     FM301700 21012KT 2SM -SHRA BR OVC003=

USA.gov is the U.S. government's official web portal to all federal, state and local government web resources and services.